Latest Weather Observations for Tamworth Airport

IDN60801

Issued at 1:02 am EDT Saturday 25 March 2017 (issued every 30 minutes, with the page automatically refreshed every 10 minutes)

About weather observations | Map of weather stations | Latest weather observations for NSW | Other Formats
Station Details ID: 055325 Name: TAMWORTH AIRPORT AWS Lat: -31.07 Lon: 150.84 Height: 394.9 m
Data from the previous 72 hours. | See also: Recent months at Tamworth Airport
Date/Time
EDT
Temp
°C
App
Temp
°C
Dew
Point
°C
Rel
Hum
%
Delta-T
°C
Wind Press
QNH
hPa
Press
MSL
hPa
Rain since
9am
mm
Dir  Spd
km/h
Gust
km/h
Spd
kts
Gust
kts
25/01:00am 17.6 15.9 13.5 77 2.4 SE 15 17 8 9 1018.2 1016.4 12.0
25/12:30am 17.6 15.9 13.5 77 2.4 SE 15 19 8 10 1018.4 1016.6 12.0
25/12:00am 18.3 16.3 13.8 75 2.6 SE 17 20 9 11 1018.7 1016.9 12.0
 
Date/Time
EDT
Temp
°C
App
Temp
°C
Dew
Point
°C
Rel
Hum
%
Delta-T
°C
Wind Press
QNH
hPa
Press
MSL
hPa
Rain since
9am
mm
Dir  Spd
km/h
Gust
km/h
Spd
kts
Gust
kts
24/11:30pm 18.2 16.5 13.7 75 2.6 SE 15 22 8 12 1018.8 1017.0 12.0
24/11:00pm 17.9 16.3 13.8 77 2.4 SE 15 20 8 11 1018.8 1017.0 12.0
24/10:30pm 17.6 16.6 13.5 77 2.4 SE 11 15 6 8 1018.7 1016.9 12.0
24/10:00pm 18.0 16.6 13.5 75 2.6 SE 13 17 7 9 1018.7 1016.9 12.0
24/09:30pm 19.1 16.8 14.1 73 2.9 ESE 19 30 10 16 1018.4 1016.6 12.0
24/09:00pm 19.0 17.1 14.3 74 2.8 SE 17 19 9 10 1018.2 1016.4 12.0
24/08:30pm 19.9 17.5 14.5 71 3.2 ESE 20 24 11 13 1017.7 1016.0 12.0
24/08:00pm 20.4 18.8 15.0 71 3.2 SE 17 22 9 12 1017.6 1015.9 12.0
24/07:30pm 20.7 19.1 15.0 70 3.4 SE 17 20 9 11 1017.4 1015.6 12.0
24/07:00pm 21.6 20.5 15.2 67 3.9 SE 15 20 8 11 1017.3 1015.5 12.0
24/06:30pm 22.9 20.7 15.0 61 4.8 ESE 20 28 11 15 1016.9 1015.1 12.0
24/06:00pm 23.2 22.5 16.5 66 4.2 ESE 15 20 8 11 1016.9 1015.1 12.0
24/05:30pm 23.2 22.5 16.5 66 4.2 ESE 15 20 8 11 1016.8 1015.0 12.0
24/05:00pm 22.8 22.5 16.4 67 4.0 E 13 17 7 9 1016.8 1015.0 12.0
24/04:30pm 22.2 20.5 16.2 69 3.7 ESE 20 24 11 13 1016.7 1014.9 12.0
24/04:00pm 22.0 20.1 15.8 68 3.8 SE 20 24 11 13 1016.8 1015.0 12.0
24/03:30pm 21.9 20.1 16.0 69 3.6 SE 20 26 11 14 1017.2 1015.4 12.0
24/03:00pm 21.6 20.8 16.1 71 3.4 ESE 15 19 8 10 1017.4 1015.6 12.0
24/02:30pm 21.0 21.6 16.8 77 2.6 ESE 9 13 5 7 1018.0 1016.3 12.0
24/02:01pm 20.2 19.9 17.4 84 1.7 ESE 15 20 8 11 1018.3 1016.5 12.0
24/02:00pm 20.1 19.8 17.3 84 1.7 ESE 15 20 8 11 1018.3 1016.5 12.0
24/01:40pm 19.7 18.0 16.2 80 2.1 ESE 20 26 11 14 1018.5 1016.7 12.0
24/01:30pm 20.2 18.7 16.4 79 2.3 ESE 19 22 10 12 1018.7 1016.9 11.8
24/01:00pm 20.3 18.6 17.3 83 1.9 SE 22 30 12 16 1018.9 1017.1 11.8
24/12:30pm 19.7 16.9 17.3 86 1.5 ESE 28 37 15 20 1019.1 1017.3 11.8
24/12:09pm 19.3 17.1 16.9 86 1.5 SE 24 32 13 17 1019.3 1017.5 11.8
24/12:00pm 19.3 17.9 16.9 86 1.5 SSE 20 30 11 16 1019.7 1018.0 11.6
24/11:42am 19.4 18.1 17.2 87 1.4 SSE 20 26 11 14 1019.4 1017.6 10.4
24/11:30am 19.6 17.9 17.2 86 1.5 SE 22 28 12 15 1019.3 1017.5 9.8
24/11:17am 19.9 18.7 17.5 86 1.5 SE 20 28 11 15 1019.1 1017.3 9.8
24/11:00am 19.8 18.9 17.8 88 1.2 SE 19 26 10 14 1019.3 1017.5 9.8
24/10:52am 19.7 19.2 17.7 88 1.2 SE 17 22 9 12 1019.3 1017.5 9.6
24/10:30am 19.7 18.8 17.8 89 1.2 SE 19 26 10 14 1019.2 1017.4 9.0
24/10:09am 19.0 17.3 17.3 90 1.1 SE 22 30 12 16 1018.9 1017.1 9.0
24/10:00am 19.0 17.3 17.3 90 1.0 SE 22 32 12 17 1018.9 1017.1 9.0
24/09:36am 18.9 17.7 17.0 89 1.2 SSE 19 32 10 17 1019.0 1017.2 4.2
24/09:35am 19.0 17.9 17.3 90 1.1 SSE 19 32 10 17 1019.0 1017.2 3.8
24/09:30am 19.2 18.0 17.5 90 1.1 SE 20 30 11 16 1018.9 1017.1 3.2
24/09:00am 18.9 17.8 17.2 90 1.0 S 19 26 10 14 1018.4 1016.6 4.6
24/08:52am 18.9 18.1 17.0 89 1.2 S 17 20 9 11 1018.3 1016.5 3.4
24/08:30am 19.1 17.9 17.1 88 1.2 SE 19 24 10 13 1017.7 1016.0 2.6
24/08:01am 19.5 18.5 17.5 88 1.2 SE 19 24 10 13 1017.5 1015.8 1.2
24/08:00am 19.5 18.3 17.5 88 1.2 SE 20 24 11 13 1017.5 1015.8 1.2
24/07:30am 19.6 18.5 17.4 87 1.4 SSE 19 26 10 14 1017.2 1015.4 0.8
24/07:00am 20.4 20.8 17.2 82 2.0 WSW 11 17 6 9 1016.6 1014.8 0.0
24/06:30am 20.6 21.3 17.0 80 2.2 SSE 9 11 5 6 1016.1 1014.3 0.0
24/06:00am 20.2 20.4 16.8 81 2.1 SSE 11 13 6 7 1015.9 1014.1 0.0
24/05:30am 20.4 20.2 16.8 80 2.2 SSE 13 15 7 8 1016.0 1014.2 0.0
24/05:00am 20.3 20.2 16.9 81 2.1 SSE 13 17 7 9 1015.7 1013.9 0.0
24/04:30am 19.9 19.4 16.9 83 1.9 SSE 15 17 8 9 1015.9 1014.1 0.0
24/04:00am 19.4 18.9 16.8 85 1.6 SSE 15 17 8 9 1015.6 1013.8 0.0
24/03:30am 19.4 19.9 16.6 84 1.7 SSE 9 13 5 7 1015.7 1013.9 0.0
24/03:00am 19.1 18.7 16.1 83 1.8 SSE 13 15 7 8 1015.8 1014.0 0.0
24/02:30am 19.6 19.6 16.3 81 2.0 S 11 13 6 7 1016.1 1014.3 0.0
24/02:00am 19.9 19.5 16.3 80 2.2 SSE 13 15 7 8 1015.9 1014.1 0.0
24/01:30am 20.4 19.7 16.4 78 2.5 SSE 15 17 8 9 1016.4 1014.6 0.0
24/01:00am 21.0 20.8 16.8 77 2.6 SSE 13 17 7 9 1016.4 1014.6 0.0
24/12:30am 21.0 20.8 16.8 77 2.6 SSE 13 17 7 9 1016.6 1014.8 0.0
24/12:00am 21.3 21.1 16.7 75 2.8 SSE 13 19 7 10 1016.8 1015.0 0.0
 
Date/Time
EDT
Temp
°C
App
Temp
°C
Dew
Point
°C
Rel
Hum
%
Delta-T
°C
Wind Press
QNH
hPa
Press
MSL
hPa
Rain since
9am
mm
Dir  Spd
km/h
Gust
km/h
Spd
kts
Gust
kts
23/11:30pm 21.5 21.0 16.9 75 2.9 SSE 15 19 8 10 1017.0 1015.2 0.0
23/11:00pm 22.4 22.0 17.1 72 3.3 SE 15 19 8 10 1016.8 1015.0 0.0
23/10:30pm 22.1 21.6 16.8 72 3.3 SE 15 20 8 11 1016.8 1015.0 0.0
23/10:00pm 22.5 21.7 17.2 72 3.3 SE 17 24 9 13 1016.8 1015.0 0.0
23/09:30pm 23.0 22.1 17.7 72 3.3 SE 19 24 10 13 1016.6 1014.8 0.0
23/09:00pm 23.1 22.4 18.2 74 3.1 S 19 22 10 12 1016.7 1014.9 0.0
23/08:30pm 23.4 23.9 18.3 73 3.3 SSE 13 15 7 8 1016.4 1014.6 0.0
23/08:00pm 24.0 24.4 18.2 70 3.7 SSE 13 17 7 9 1015.9 1014.1 0.0
23/07:30pm 24.5 24.5 18.0 67 4.1 S 15 19 8 10 1015.3 1013.6 0.0
23/07:00pm 25.8 26.6 17.4 59 5.3 S 9 11 5 6 1015.0 1013.2 0.0
23/06:30pm 27.5 28.1 16.8 52 6.8 S 9 13 5 7 1015.0 1013.2 0.0
23/06:00pm 27.9 29.3 17.7 53 6.5 SSW 7 15 4 8 1015.0 1013.2 0.0
23/05:30pm 28.5 28.6 16.4 48 7.6 SSW 11 17 6 9 1014.9 1013.1 0.0
23/05:00pm 28.7 28.2 15.9 45 8.0 SSW 13 20 7 11 1014.9 1013.1 0.0
23/04:30pm 28.9 29.4 17.4 49 7.4 WSW 11 20 6 11 1015.0 1013.2 0.0
23/04:00pm 29.4 29.8 17.2 47 7.8 W 11 17 6 9 1015.1 1013.3 0.0
23/03:30pm 27.7 27.8 16.6 50 7.0 WSW 11 19 6 10 1015.5 1013.7 0.0
23/03:00pm 29.6 30.8 17.4 47 7.8 WSW 7 20 4 11 1015.7 1013.9 0.0
23/02:30pm 28.2 29.3 16.5 49 7.4 S 6 11 3 6 1016.2 1014.4 0.0
23/02:00pm 27.2 28.0 15.9 50 7.0 SE 6 9 3 5 1016.8 1015.0 0.0
23/01:30pm 26.5 27.4 16.1 52 6.5 SSE 6 11 3 6 1017.2 1015.4 0.0
23/01:00pm 27.1 27.5 16.4 52 6.7 ESE 9 13 5 7 1017.6 1015.9 0.0
23/12:30pm 26.7 29.1 16.9 55 6.2 CALM 0 9 0 5 1018.2 1016.4 0.0
23/12:00pm 25.1 26.7 16.8 60 5.2 ESE 4 9 2 5 1018.6 1016.8 0.0
23/11:30am 25.1 26.4 17.1 61 5.0 NE 6 9 3 5 1018.7 1016.9 0.0
23/11:00am 23.2 24.8 17.9 72 3.4 ESE 6 9 3 5 1018.9 1017.1 0.0
23/10:30am 22.0 23.0 17.8 77 2.6 ESE 9 11 5 6 1019.1 1017.3 0.0
23/10:00am 21.2 22.5 17.6 80 2.3 S 7 9 4 5 1019.1 1017.3 0.0
23/09:30am 21.0 22.3 18.4 85 1.6 SSW 9 11 5 6 1018.8 1017.0 0.0
23/09:00am 20.5 23.3 17.9 85 1.6 CALM 0 0 0 0 1018.4 1016.6 10.0
23/08:30am 19.7 22.5 18.0 90 1.1 CALM 0 6 0 3 1017.9 1016.2 10.0
23/08:19am 19.0 21.6 17.5 91 0.9 CALM 0 0 0 0 1017.8 1016.1 10.0
23/08:17am 18.9 21.5 17.4 91 0.9 CALM 0 2 0 1 1017.8 1016.1 10.0
23/08:00am 18.6 19.9 17.1 91 0.9 ESE 6 7 3 4 1017.5 1015.8 10.0
23/07:32am 18.1 19.0 16.6 91 0.9 E 7 9 4 5 1017.2 1015.4 10.0
23/07:30am 18.1 19.0 16.6 91 0.9 E 7 9 4 5 1017.2 1015.4 10.0
23/07:22am 18.0 18.5 16.5 91 0.9 E 9 11 5 6 1017.1 1015.3 10.0
23/07:00am 17.8 18.1 16.1 90 1.0 SE 9 13 5 7 1017.1 1015.3 10.0
23/06:30am 17.9 18.8 16.2 90 1.0 ESE 6 7 3 4 1017.0 1015.2 10.0
23/06:00am 18.3 19.5 16.8 91 0.9 SE 6 7 3 4 1016.8 1015.0 10.0
23/05:30am 17.2 19.0 15.4 89 1.1 CALM 0 6 0 3 1016.4 1014.6 10.0
23/05:00am 17.9 18.3 16.2 90 1.0 SE 9 11 5 6 1016.2 1014.4 10.0
23/04:30am 18.1 18.9 16.4 90 1.0 SE 7 11 4 6 1016.3 1014.5 10.0
23/04:00am 17.8 18.1 16.1 90 1.0 SSW 9 13 5 7 1016.3 1014.5 10.0
23/03:30am 18.4 18.9 16.6 89 1.1 S 9 13 5 7 1016.5 1014.7 10.0
23/03:00am 18.6 19.2 16.9 90 1.0 S 9 11 5 6 1016.7 1014.9 10.0
23/02:30am 18.2 18.6 16.4 89 1.1 SSW 9 11 5 6 1016.8 1015.0 10.0
23/02:00am 18.5 19.0 16.5 88 1.2 SSE 9 11 5 6 1017.0 1015.2 10.0
23/01:30am 19.0 21.4 17.0 88 1.2 CALM 0 0 0 0 1017.2 1015.4 10.0
23/01:00am 18.7 20.9 16.5 87 1.3 CALM 0 6 0 3 1017.2 1015.4 10.0
23/12:35am 18.2 18.0 15.8 86 1.4 NNW 11 17 6 9 1017.3 1015.5 10.0
23/12:30am 18.9 18.5 16.3 85 1.6 N 13 17 7 9 1017.2 1015.4 10.0
23/12:00am 20.7 22.6 19.0 90 1.1 NNW 7 11 4 6 1017.2 1015.4 10.0
 
Date/Time
EDT
Temp
°C
App
Temp
°C
Dew
Point
°C
Rel
Hum
%
Delta-T
°C
Wind Press
QNH
hPa
Press
MSL
hPa
Rain since
9am
mm
Dir  Spd
km/h
Gust
km/h
Spd
kts
Gust
kts
22/11:34pm 20.7 22.8 19.0 90 1.1 NNW 6 7 3 4 1017.4 1015.6 10.0
22/11:30pm 20.5 22.5 18.8 90 1.1 NW 6 9 3 5 1017.5 1015.8 10.0
22/11:00pm 20.9 23.1 19.2 90 1.1 WSW 6 11 3 6 1017.5 1015.8 9.8
22/10:30pm 20.5 22.0 18.8 90 1.1 W 9 11 5 6 1017.4 1015.6 9.8
22/10:00pm 20.6 21.2 18.7 89 1.2 ESE 13 17 7 9 1017.1 1015.3 9.6
22/09:30pm 20.7 20.7 19.0 90 1.1 SE 17 22 9 12 1017.3 1015.5 9.2
22/09:00pm 20.8 20.9 19.1 90 1.1 SE 17 20 9 11 1017.0 1015.2 8.6
22/08:30pm 21.0 21.5 19.3 90 1.1 SE 15 20 8 11 1016.5 1014.7 8.0
22/08:00pm 20.9 21.3 19.0 89 1.2 S 15 20 8 11 1016.5 1014.7 7.4
22/07:30pm 20.9 21.8 19.2 90 1.1 SSE 13 17 7 9 1015.7 1013.9 7.0
22/07:00pm 21.0 21.4 19.1 89 1.2 ESE 15 20 8 11 1015.3 1013.6 7.0
22/06:54pm 21.0 21.1 19.1 89 1.2 ESE 17 22 9 12 1015.3 1013.6 7.0
22/06:30pm 21.2 21.4 19.3 89 1.2 SE 17 24 9 13 1015.3 1013.6 6.2
22/06:19pm 21.4 21.9 19.3 88 1.4 SSE 15 20 8 11 1015.2 1013.5 4.8
22/06:00pm 21.7 22.8 19.6 88 1.4 SSE 13 19 7 10 1015.1 1013.3 4.2
22/05:30pm 21.9 22.2 19.6 87 1.5 SSE 17 20 9 11 1014.9 1013.1 3.6
22/05:00pm 22.2 23.3 19.7 86 1.6 SSE 13 17 7 9 1014.8 1013.0 3.4
22/04:30pm 22.4 24.1 20.1 87 1.5 SE 11 15 6 8 1014.8 1013.0 3.4
22/04:00pm 22.6 24.3 20.1 86 1.6 ESE 11 13 6 7 1014.9 1013.1 3.4
22/03:30pm 22.5 24.7 19.7 84 1.8 ESE 7 9 4 5 1015.1 1013.3 3.2
22/03:11pm 22.4 24.9 19.8 85 1.7 E 6 9 3 5 1015.3 1013.6 2.6
22/03:00pm 22.3 24.5 19.7 85 1.7 E 7 11 4 6 1015.5 1013.7 2.6
22/02:49pm 22.4 24.2 19.6 84 1.8 E 9 11 5 6 1015.7 1013.9 1.6
22/02:30pm 22.5 24.3 19.5 83 1.9 E 9 13 5 7 1015.9 1014.1 0.8
22/02:18pm 22.4 23.9 19.8 85 1.7 ESE 11 15 6 8 1016.0 1014.2 0.8
22/02:00pm 21.6 22.5 19.3 87 1.5 E 13 19 7 10 1016.4 1014.6 0.8
22/01:30pm 21.7 21.9 19.3 86 1.5 SE 17 20 9 11 1016.5 1014.7 0.6
22/01:15pm 21.9 22.1 19.3 85 1.7 SSE 17 20 9 11 1016.7 1014.9 0.6
22/01:00pm 22.5 24.1 19.1 81 2.2 S 9 11 5 6 1016.7 1014.9 0.6
22/12:30pm 22.8 24.3 19.0 79 2.4 ENE 9 15 5 8 1017.0 1015.2 0.6
22/12:00pm 23.3 24.3 18.6 75 3.0 NNE 11 19 6 10 1017.2 1015.4 0.6
22/11:30am 22.7 24.8 19.3 81 2.2 NNE 7 11 4 6 1017.5 1015.8 0.2
22/11:00am 23.5 23.2 18.2 72 3.4 N 17 22 9 12 1017.6 1015.9 0.0
22/10:30am 23.5 24.6 18.8 75 3.0 NNW 11 15 6 8 1017.7 1016.0 0.0
22/10:00am 23.0 25.0 19.2 79 2.5 NNW 7 9 4 5 1017.7 1016.0 0.0
22/09:30am 22.2 24.4 19.2 83 1.9 WNW 6 7 3 4 1017.5 1015.8 0.0
22/09:00am 21.6 23.5 19.0 85 1.7 WNW 7 9 4 5 1017.4 1015.6 40.4
22/08:30am 21.0 23.2 19.1 89 1.2 W 6 9 3 5 1017.1 1015.3 40.4
22/08:00am 21.0 23.9 19.1 89 1.2 ESE 2 6 1 3 1016.8 1015.0 40.4
22/07:30am 20.5 23.6 18.6 89 1.2 CALM 0 0 0 0 1016.4 1014.6 40.4
22/07:00am 20.0 22.1 18.1 89 1.2 SE 4 7 2 4 1016.2 1014.4 40.4
22/06:30am 20.3 22.0 18.4 89 1.2 E 7 9 4 5 1015.8 1014.0 40.4
22/06:00am 20.4 22.3 18.5 89 1.2 SSE 6 7 3 4 1015.7 1013.9 40.2
22/05:30am 20.4 22.3 18.5 89 1.2 ESE 6 9 3 5 1015.8 1014.0 40.2
22/05:00am 20.3 22.0 18.6 90 1.1 SSE 7 9 4 5 1015.5 1013.7 40.2
22/04:30am 20.1 21.4 18.4 90 1.1 SSE 9 11 5 6 1015.3 1013.6 40.2
22/04:00am 19.8 21.3 18.1 90 1.1 S 7 9 4 5 1015.3 1013.6 40.2
22/03:30am 19.7 22.4 17.8 89 1.2 CALM 0 0 0 0 1015.6 1013.8 40.2
22/03:00am 20.3 22.9 18.4 89 1.2 SSE 2 6 1 3 1015.9 1014.1 40.2
22/02:30am 20.4 21.7 18.5 89 1.2 SSE 9 11 5 6 1016.0 1014.2 40.2
22/02:00am 20.1 21.9 18.4 90 1.1 SSW 6 9 3 5 1016.3 1014.5 40.2
22/01:30am 20.5 23.2 18.6 89 1.2 ESE 2 7 1 4 1016.3 1014.5 40.2

Other Formats:

Comma delimited format used in spreadsheet applications
http://www.bom.gov.au/fwo/IDN60801/IDN60801.95762.axf

JavaScript Object Notation format (JSON) in row-major order
http://www.bom.gov.au/fwo/IDN60801/IDN60801.95762.json